createdAt,value
2023-05-02T00:00:06.643Z,61.20
2023-05-02T00:02:54.863Z,86.50
2023-05-02T00:05:23.256Z,59.60
2023-05-02T00:07:54.380Z,54.30
2023-05-02T00:10:22.194Z,355.50
2023-05-02T00:12:50.012Z,561.10
2023-05-02T00:15:17.848Z,562.70
2023-05-02T00:17:45.815Z,264.50
2023-05-02T00:20:13.882Z,70.90
2023-05-02T00:22:41.689Z,54.30
2023-05-02T00:25:10.117Z,55.90
2023-05-02T00:27:37.980Z,40.50
2023-05-02T00:30:06.750Z,38.40
2023-05-02T00:32:34.779Z,34.70
2023-05-02T00:35:02.776Z,32.90
2023-05-02T00:37:30.664Z,27.20
2023-05-02T00:39:59.256Z,28.10
2023-05-02T00:42:29.364Z,25.90
2023-05-02T00:44:57.788Z,22.40
2023-05-02T00:47:25.873Z,23.40
2023-05-02T00:49:53.589Z,23.00
2023-05-02T00:52:21.480Z,21.20
2023-05-02T00:54:49.722Z,18.40
2023-05-02T00:57:17.566Z,33.90
2023-05-02T00:59:45.433Z,35.50
2023-05-02T01:02:53.245Z,32.70
2023-05-02T01:05:45.238Z,21.70
2023-05-02T01:08:56.164Z,19.60
2023-05-02T01:11:36.576Z,17.40
2023-05-02T01:14:06.270Z,19.10
2023-05-02T01:16:37.270Z,20.30
2023-05-02T01:19:06.198Z,21.00
2023-05-02T01:21:34.205Z,19.50
2023-05-02T01:24:20.513Z,15.40
2023-05-02T01:26:58.602Z,15.50
2023-05-02T01:29:27.913Z,17.30
2023-05-02T01:31:56.975Z,19.00
2023-05-02T01:34:26.093Z,18.10
2023-05-02T01:36:54.767Z,18.90
2023-05-02T01:39:24.632Z,16.20
2023-05-02T01:41:54.816Z,17.50
2023-05-02T01:44:24.497Z,16.30
2023-05-02T01:46:53.375Z,14.10
2023-05-02T01:49:23.961Z,15.90
2023-05-02T01:51:52.833Z,16.30
2023-05-02T01:54:23.665Z,18.20
2023-05-02T01:56:52.347Z,16.00
2023-05-02T01:59:22.949Z,15.80
2023-05-02T02:01:52.094Z,14.40
2023-05-02T02:04:21.427Z,15.80
2023-05-02T02:06:55.798Z,16.50
2023-05-02T02:09:23.968Z,15.90
2023-05-02T02:12:36.872Z,13.20
2023-05-02T02:15:16.780Z,16.90
2023-05-02T02:17:50.519Z,15.30
2023-05-02T02:20:18.995Z,16.40
2023-05-02T02:22:48.128Z,15.90
2023-05-02T02:25:17.795Z,14.70
2023-05-02T02:27:45.669Z,13.60
2023-05-02T02:30:14.069Z,13.90
2023-05-02T02:32:42.423Z,14.10
2023-05-02T02:35:10.946Z,13.10
2023-05-02T02:37:44.378Z,13.00
2023-05-02T02:40:22.192Z,12.70
2023-05-02T02:43:12.901Z,14.20
2023-05-02T02:46:07.785Z,15.50
2023-05-02T02:49:02.886Z,16.20
2023-05-02T02:51:40.062Z,17.20
2023-05-02T02:54:55.128Z,17.80
2023-05-02T02:58:14.095Z,16.10
2023-05-02T03:00:41.849Z,16.50
2023-05-02T03:03:09.969Z,18.30
2023-05-02T03:05:38.554Z,22.80
2023-05-02T03:08:06.730Z,22.90
2023-05-02T03:10:35.411Z,21.00
2023-05-02T03:13:03.285Z,19.90
2023-05-02T03:15:48.843Z,14.50
2023-05-02T03:18:16.841Z,14.50
2023-05-02T03:20:44.807Z,14.30
2023-05-02T03:23:12.615Z,14.40
2023-05-02T03:25:40.375Z,14.50
2023-05-02T03:28:08.155Z,15.00
2023-05-02T03:30:35.879Z,13.40
2023-05-02T03:33:04.865Z,13.60
2023-05-02T03:35:32.664Z,12.10
2023-05-02T03:38:01.193Z,10.50
2023-05-02T03:40:29.014Z,10.20
2023-05-02T03:42:56.883Z,10.40
2023-05-02T03:45:24.697Z,10.10
2023-05-02T03:47:52.554Z,10.80
2023-05-02T03:50:20.571Z,10.40
2023-05-02T03:52:48.415Z,10.10
2023-05-02T03:55:16.322Z,9.60
2023-05-02T03:57:44.229Z,9.90
2023-05-02T04:00:12.521Z,10.60
2023-05-02T04:02:40.465Z,10.00
2023-05-02T04:05:08.753Z,9.70
2023-05-02T04:07:36.665Z,8.90
2023-05-02T04:10:05.027Z,9.60
2023-05-02T04:12:32.902Z,9.90
2023-05-02T04:15:00.791Z,9.50
2023-05-02T04:17:28.840Z,9.90
2023-05-02T04:19:57.023Z,10.60
2023-05-02T04:22:24.849Z,10.10
2023-05-02T04:24:53.860Z,9.60
2023-05-02T04:27:21.703Z,10.50
2023-05-02T04:29:50.692Z,10.20
2023-05-02T04:32:18.567Z,10.20
2023-05-02T04:34:46.478Z,9.30
2023-05-02T04:37:14.330Z,10.00
2023-05-02T04:39:42.087Z,10.20
2023-05-02T04:42:09.878Z,10.60
2023-05-02T04:44:37.704Z,10.40
2023-05-02T04:47:05.531Z,9.20
2023-05-02T04:49:33.336Z,9.20
2023-05-02T04:52:01.133Z,9.50
2023-05-02T04:54:29.330Z,9.20
2023-05-02T04:56:57.231Z,9.30
2023-05-02T04:59:25.030Z,9.10
2023-05-02T05:01:52.848Z,10.90
2023-05-02T05:04:20.702Z,9.50
2023-05-02T05:06:49.377Z,8.80
2023-05-02T05:09:17.209Z,9.90
2023-05-02T05:11:46.275Z,9.40
2023-05-02T05:14:14.227Z,9.80
2023-05-02T05:16:42.257Z,10.80
2023-05-02T05:19:10.375Z,10.80
2023-05-02T05:21:38.252Z,9.70
2023-05-02T05:24:06.604Z,10.00
2023-05-02T05:26:34.396Z,11.40
2023-05-02T05:29:02.252Z,11.00
2023-05-02T05:31:30.129Z,10.10
2023-05-02T05:33:58.096Z,10.30
2023-05-02T05:36:26.568Z,10.30
2023-05-02T05:38:54.321Z,10.20
2023-05-02T05:41:23.149Z,9.00
2023-05-02T05:43:50.914Z,10.20
2023-05-02T05:46:18.683Z,9.80
2023-05-02T05:48:46.481Z,9.70
2023-05-02T05:51:14.270Z,9.20
2023-05-02T05:53:42.048Z,10.00
2023-05-02T05:56:11.837Z,9.30
2023-05-02T05:58:40.203Z,9.40
2023-05-02T06:01:08.338Z,10.10
2023-05-02T06:03:36.482Z,9.50
2023-05-02T06:06:07.428Z,9.40
2023-05-02T06:08:35.661Z,9.40
2023-05-02T06:11:03.759Z,9.90
2023-05-02T06:13:31.533Z,8.80
2023-05-02T06:16:02.846Z,9.50
2023-05-02T06:18:30.808Z,8.70
2023-05-02T06:20:58.725Z,9.80
2023-05-02T06:23:27.394Z,8.30
2023-05-02T06:25:59.509Z,8.80
2023-05-02T06:28:27.803Z,8.50
2023-05-02T06:30:59.707Z,8.90
2023-05-02T06:33:29.161Z,8.50
2023-05-02T06:35:59.111Z,8.20
2023-05-02T06:38:27.723Z,8.20
2023-05-02T06:40:58.246Z,8.20
2023-05-02T06:43:26.246Z,7.10
2023-05-02T06:45:56.390Z,6.60
2023-05-02T06:48:24.801Z,7.30
2023-05-02T06:50:54.151Z,7.00
2023-05-02T06:53:22.135Z,7.60
2023-05-02T06:55:58.135Z,7.10
2023-05-02T06:58:26.328Z,7.00
2023-05-02T07:00:54.135Z,7.10
2023-05-02T07:03:22.105Z,7.10
2023-05-02T07:05:49.880Z,6.50
2023-05-02T07:08:18.778Z,6.60
2023-05-02T07:10:46.540Z,7.20
2023-05-02T07:13:14.336Z,6.50
2023-05-02T07:15:43.168Z,5.90
2023-05-02T07:18:11.462Z,6.20
2023-05-02T07:20:41.489Z,5.90
2023-05-02T07:23:09.461Z,5.30
2023-05-02T07:25:40.126Z,5.50
2023-05-02T07:28:08.754Z,5.60
2023-05-02T07:30:36.714Z,5.90
2023-05-02T07:33:04.708Z,5.50
2023-05-02T07:35:32.601Z,5.10
2023-05-02T07:38:00.639Z,5.10
2023-05-02T07:40:28.679Z,5.10
2023-05-02T07:42:58.333Z,5.10
2023-05-02T07:45:26.223Z,5.10
2023-05-02T07:47:54.149Z,5.60
2023-05-02T07:50:22.935Z,5.20
2023-05-02T07:52:50.856Z,7.80
2023-05-02T07:55:18.921Z,5.40
2023-05-02T07:57:46.826Z,5.20
2023-05-02T08:00:15.495Z,5.20
2023-05-02T08:02:43.503Z,4.70
2023-05-02T08:05:11.586Z,4.80
2023-05-02T08:07:39.732Z,5.00
2023-05-02T08:10:08.723Z,5.10
2023-05-02T08:12:41.373Z,5.20
2023-05-02T08:15:12.226Z,5.60
2023-05-02T08:17:40.153Z,6.40
2023-05-02T08:20:08.662Z,6.70
2023-05-02T08:22:36.606Z,5.00
2023-05-02T08:25:04.946Z,5.00
2023-05-02T08:27:32.774Z,5.80
2023-05-02T08:30:01.215Z,5.60
2023-05-02T08:32:30.137Z,5.60
2023-05-02T08:35:00.246Z,6.10
2023-05-02T08:37:28.061Z,5.60
2023-05-02T08:39:56.306Z,6.20
2023-05-02T08:42:24.924Z,5.70
2023-05-02T08:44:52.938Z,6.10
2023-05-02T08:47:21.867Z,6.00
2023-05-02T08:49:50.296Z,7.30
2023-05-02T08:52:19.862Z,6.60
2023-05-02T08:54:47.822Z,6.40
2023-05-02T08:57:15.785Z,6.20
2023-05-02T08:59:43.762Z,6.30
2023-05-02T09:02:24.419Z,6.30
2023-05-02T09:04:55.925Z,6.30
2023-05-02T09:07:23.765Z,6.70
2023-05-02T09:09:51.869Z,7.00
2023-05-02T09:12:26.863Z,6.40
2023-05-02T09:15:20.608Z,7.10
2023-05-02T09:17:49.369Z,6.30
2023-05-02T09:20:17.869Z,6.50
2023-05-02T09:22:51.089Z,6.50
2023-05-02T09:25:20.728Z,6.80
2023-05-02T09:27:53.314Z,7.40
2023-05-02T09:30:24.059Z,7.30
2023-05-02T09:32:55.648Z,7.20
2023-05-02T09:35:24.226Z,7.00
2023-05-02T09:37:57.150Z,7.40
2023-05-02T09:40:28.357Z,7.60
2023-05-02T09:42:56.302Z,7.20
2023-05-02T09:45:26.168Z,6.60
2023-05-02T09:47:54.310Z,7.30
2023-05-02T09:50:38.609Z,6.80
2023-05-02T09:53:09.921Z,6.40
2023-05-02T09:55:38.076Z,6.50
2023-05-02T09:58:06.650Z,5.90
2023-05-02T10:00:41.143Z,5.90
2023-05-02T10:03:09.727Z,5.80
2023-05-02T10:05:39.634Z,5.50
2023-05-02T10:08:09.597Z,5.60
2023-05-02T10:10:40.622Z,6.10
2023-05-02T10:13:09.265Z,4.80
2023-05-02T10:15:43.248Z,5.50
2023-05-02T10:18:21.693Z,5.00
2023-05-02T10:20:58.769Z,4.50
2023-05-02T10:23:28.638Z,4.40
2023-05-02T10:26:00.152Z,4.40
2023-05-02T10:28:28.574Z,3.70
2023-05-02T10:30:58.632Z,3.40
2023-05-02T10:33:27.013Z,3.30
2023-05-02T10:35:54.888Z,3.20
2023-05-02T10:38:24.898Z,3.20
2023-05-02T10:41:19.173Z,2.90
2023-05-02T10:43:49.262Z,3.00
2023-05-02T10:46:34.314Z,3.10
2023-05-02T10:49:12.771Z,2.80
2023-05-02T10:51:42.949Z,2.70
2023-05-02T10:54:26.003Z,2.90
2023-05-02T10:57:08.970Z,2.90
2023-05-02T10:59:39.019Z,2.70
2023-05-02T11:02:25.422Z,2.70
2023-05-02T11:05:05.143Z,2.50
2023-05-02T11:07:37.567Z,2.80
2023-05-02T11:10:17.239Z,2.40
2023-05-02T11:12:52.873Z,2.60
2023-05-02T11:15:27.728Z,2.30
2023-05-02T11:18:09.249Z,2.70
2023-05-02T11:20:44.004Z,2.40
2023-05-02T11:23:15.651Z,2.60
2023-05-02T11:25:56.884Z,2.60
2023-05-02T11:28:36.841Z,2.50
2023-05-02T11:31:10.967Z,2.70
2023-05-02T11:33:39.075Z,2.60
2023-05-02T11:36:07.194Z,2.70
2023-05-02T11:38:38.720Z,2.50
2023-05-02T11:41:06.692Z,2.40
2023-05-02T11:43:35.069Z,2.40
2023-05-02T11:46:04.334Z,2.60
2023-05-02T11:48:32.365Z,2.30
2023-05-02T11:51:05.655Z,2.10
2023-05-02T11:53:33.946Z,2.10
2023-05-02T11:56:04.957Z,2.30
2023-05-02T11:58:33.919Z,1.90
2023-05-02T12:01:16.100Z,2.30
2023-05-02T12:03:50.072Z,2.00
2023-05-02T12:06:20.034Z,1.90
2023-05-02T12:08:49.385Z,2.20
2023-05-02T12:11:17.511Z,2.30
2023-05-02T12:13:48.414Z,1.80
2023-05-02T12:16:18.033Z,2.00
2023-05-02T12:18:47.524Z,2.50
2023-05-02T12:21:15.533Z,2.40
2023-05-02T12:23:43.739Z,2.50
2023-05-02T12:26:29.300Z,2.70
2023-05-02T12:28:58.962Z,2.70
2023-05-02T12:31:31.601Z,2.70
2023-05-02T12:34:01.107Z,3.00
2023-05-02T12:36:29.539Z,2.80
2023-05-02T12:39:02.701Z,3.00
2023-05-02T12:41:34.742Z,3.10
2023-05-02T12:44:03.591Z,3.20
2023-05-02T12:46:32.105Z,3.70
2023-05-02T12:49:09.424Z,3.80
2023-05-02T12:51:39.156Z,2.90
2023-05-02T12:54:07.502Z,3.60
2023-05-02T12:56:44.674Z,3.40
2023-05-02T12:59:30.444Z,4.10
2023-05-02T13:01:59.527Z,4.50
2023-05-02T13:04:37.566Z,4.60
2023-05-02T13:07:05.511Z,4.30
2023-05-02T13:09:33.510Z,4.40
2023-05-02T13:12:03.815Z,4.10
2023-05-02T13:14:32.281Z,4.50
2023-05-02T13:17:00.498Z,5.30
2023-05-02T13:19:31.447Z,4.60
2023-05-02T13:21:59.686Z,4.80
2023-05-02T13:24:27.769Z,4.60
2023-05-02T13:26:55.716Z,5.00
2023-05-02T13:29:23.574Z,5.80
2023-05-02T13:31:51.626Z,5.00
2023-05-02T13:34:19.554Z,5.50
2023-05-02T13:36:47.539Z,5.10
2023-05-02T13:39:15.342Z,4.90
2023-05-02T13:41:43.382Z,5.40
2023-05-02T13:44:11.203Z,5.10
2023-05-02T13:46:39.588Z,4.80
2023-05-02T13:49:07.492Z,5.30
2023-05-02T13:51:35.578Z,4.90
2023-05-02T13:54:03.484Z,4.20
2023-05-02T13:56:31.391Z,4.50
2023-05-02T13:58:59.382Z,4.10
2023-05-02T14:01:28.326Z,4.30
2023-05-02T14:03:56.393Z,4.40
2023-05-02T14:06:24.795Z,4.20
2023-05-02T14:08:52.752Z,4.00
2023-05-02T14:11:20.797Z,3.90
2023-05-02T14:13:48.779Z,3.90
2023-05-02T14:16:16.754Z,3.50
2023-05-02T14:18:45.676Z,3.70
2023-05-02T14:21:13.457Z,3.90
2023-05-02T14:23:41.280Z,3.50
2023-05-02T14:26:09.388Z,3.00
2023-05-02T14:28:38.469Z,2.80
2023-05-02T14:31:07.940Z,2.90
2023-05-02T14:33:36.145Z,3.60
2023-05-02T14:36:04.727Z,2.60
2023-05-02T14:38:32.919Z,2.60
2023-05-02T14:41:02.849Z,2.60
2023-05-02T14:43:31.046Z,2.30
2023-05-02T14:46:02.749Z,2.40
2023-05-02T14:48:30.759Z,2.40
2023-05-02T14:51:00.723Z,2.40
2023-05-02T14:53:28.487Z,2.40
2023-05-02T14:55:56.294Z,2.20
2023-05-02T14:58:26.790Z,3.20
2023-05-02T15:00:54.792Z,3.50
2023-05-02T15:03:23.068Z,2.20
2023-05-02T15:05:51.150Z,2.20
2023-05-02T15:08:19.661Z,2.40
2023-05-02T15:10:47.925Z,2.00
2023-05-02T15:13:15.957Z,2.10
2023-05-02T15:15:47.334Z,2.00
2023-05-02T15:18:15.515Z,1.80
2023-05-02T15:20:44.650Z,2.90
2023-05-02T15:23:12.518Z,1.70
2023-05-02T15:25:40.672Z,1.80
2023-05-02T15:28:08.804Z,1.90
2023-05-02T15:30:36.761Z,1.80
2023-05-02T15:33:04.830Z,1.70
2023-05-02T15:35:32.731Z,1.80
2023-05-02T15:38:00.739Z,1.50
2023-05-02T15:40:28.711Z,1.60
2023-05-02T15:42:56.619Z,1.50
2023-05-02T15:45:24.657Z,2.00
2023-05-02T15:47:52.819Z,1.50
2023-05-02T15:50:20.754Z,1.70
2023-05-02T15:52:48.600Z,1.60
2023-05-02T15:55:16.899Z,1.60
2023-05-02T15:57:44.913Z,1.60
2023-05-02T16:00:16.863Z,1.70
2023-05-02T16:02:45.078Z,1.50
2023-05-02T16:05:13.275Z,1.40
2023-05-02T16:07:41.120Z,1.40
2023-05-02T16:10:10.080Z,1.60
2023-05-02T16:12:37.982Z,1.30
2023-05-02T16:15:08.365Z,1.70
2023-05-02T16:17:36.223Z,2.00
2023-05-02T16:20:05.786Z,2.30
2023-05-02T16:22:33.772Z,1.70
2023-05-02T16:25:01.660Z,2.10
2023-05-02T16:27:29.661Z,2.10
2023-05-02T16:29:58.995Z,3.90
2023-05-02T16:32:28.159Z,2.10
2023-05-02T16:34:56.122Z,2.40
2023-05-02T16:37:24.008Z,2.30
2023-05-02T16:39:51.989Z,2.40
2023-05-02T16:42:20.001Z,2.60
2023-05-02T16:44:48.019Z,2.10
2023-05-02T16:47:15.947Z,2.10
2023-05-02T16:49:43.769Z,2.90
2023-05-02T16:52:11.730Z,2.40
2023-05-02T16:54:39.625Z,4.00
2023-05-02T16:57:08.251Z,2.30
2023-05-02T16:59:37.174Z,2.40
2023-05-02T17:02:05.071Z,2.50
2023-05-02T17:04:33.023Z,3.20
2023-05-02T17:07:00.782Z,3.30
2023-05-02T17:09:28.560Z,2.60
2023-05-02T17:11:56.442Z,3.20
2023-05-02T17:14:24.385Z,3.70
2023-05-02T17:16:52.352Z,2.80
2023-05-02T17:19:20.297Z,4.50
2023-05-02T17:21:48.351Z,2.60
2023-05-02T17:24:16.220Z,2.60
2023-05-02T17:26:44.168Z,2.40
2023-05-02T17:29:12.490Z,3.30
2023-05-02T17:31:40.723Z,3.00
2023-05-02T17:34:08.920Z,2.70
2023-05-02T17:36:36.925Z,2.40
2023-05-02T17:39:04.729Z,2.60
2023-05-02T17:41:35.997Z,2.80
2023-05-02T17:44:05.101Z,2.20
2023-05-02T17:46:33.632Z,2.40
2023-05-02T17:49:01.642Z,2.80
2023-05-02T17:51:29.535Z,2.80
2023-05-02T17:53:57.349Z,3.10
2023-05-02T17:56:25.220Z,12.60
2023-05-02T17:58:53.831Z,5.20
2023-05-02T18:01:21.879Z,4.50
2023-05-02T18:03:50.072Z,4.20
2023-05-02T18:06:18.819Z,3.40
2023-05-02T18:08:46.980Z,3.10
2023-05-02T18:11:19.552Z,3.20
2023-05-02T18:16:18.148Z,3.20
2023-05-02T18:18:46.242Z,3.50
2023-05-02T18:21:22.159Z,3.20
2023-05-02T18:23:50.094Z,3.90
2023-05-02T18:26:18.238Z,3.40
2023-05-02T18:28:53.466Z,2.90
2023-05-02T18:31:22.406Z,3.30
2023-05-02T18:33:51.670Z,4.40
2023-05-02T18:36:27.252Z,4.70
2023-05-02T18:38:56.297Z,4.80
2023-05-02T18:41:24.356Z,4.80
2023-05-02T18:43:53.242Z,4.90
2023-05-02T18:46:21.300Z,4.40
2023-05-02T18:48:49.135Z,4.30
2023-05-02T18:51:17.291Z,4.70
2023-05-02T18:53:45.225Z,5.60
2023-05-02T18:56:16.812Z,4.80
2023-05-02T18:58:46.125Z,5.60
2023-05-02T19:01:15.912Z,7.20
2023-05-02T19:03:44.288Z,6.10
2023-05-02T19:06:14.068Z,6.60
2023-05-02T19:08:42.366Z,6.20
2023-05-02T19:11:10.209Z,6.20
2023-05-02T19:13:38.791Z,5.30
2023-05-02T19:16:16.400Z,4.70
2023-05-02T19:18:46.805Z,5.90
2023-05-02T19:21:14.738Z,4.30
2023-05-02T19:23:44.706Z,4.00
2023-05-02T19:26:20.614Z,3.50
2023-05-02T19:28:48.560Z,4.00
2023-05-02T19:31:19.514Z,4.00
2023-05-02T19:33:58.064Z,3.60
2023-05-02T19:36:27.482Z,3.60
2023-05-02T19:38:58.096Z,4.00
2023-05-02T19:41:26.325Z,4.10
2023-05-02T19:43:56.562Z,3.60
2023-05-02T19:46:24.344Z,3.70
2023-05-02T19:48:52.425Z,3.50
2023-05-02T19:51:25.896Z,3.40
2023-05-02T19:53:54.540Z,3.50
2023-05-02T19:56:26.844Z,3.60
2023-05-02T19:58:56.876Z,3.30
2023-05-02T20:01:31.473Z,3.30
2023-05-02T20:04:00.316Z,3.30
2023-05-02T20:06:28.602Z,4.00
2023-05-02T20:08:56.495Z,3.60
2023-05-02T20:11:25.974Z,3.40
2023-05-02T20:13:54.539Z,3.60
2023-05-02T20:16:22.500Z,4.00
2023-05-02T20:18:51.309Z,3.20
2023-05-02T20:21:19.086Z,3.40
2023-05-02T20:23:47.161Z,3.60
2023-05-02T20:26:17.252Z,3.20
2023-05-02T20:28:48.276Z,3.70
2023-05-02T20:31:16.360Z,2.80
2023-05-02T20:33:46.049Z,3.30
2023-05-02T20:36:15.045Z,4.50
2023-05-02T20:38:44.734Z,3.40
2023-05-02T20:41:15.371Z,3.60
2023-05-02T20:43:47.237Z,3.70
2023-05-02T20:46:19.096Z,4.00
2023-05-02T20:48:47.721Z,3.90
2023-05-02T20:51:16.147Z,4.00
2023-05-02T20:53:44.768Z,4.00
2023-05-02T20:56:13.243Z,3.80
2023-05-02T20:58:41.276Z,4.30
2023-05-02T21:01:09.591Z,4.20
2023-05-02T21:03:40.706Z,4.30
2023-05-02T21:06:08.758Z,4.30
2023-05-02T21:08:36.880Z,4.20
2023-05-02T21:11:15.068Z,4.10
2023-05-02T21:13:43.714Z,4.50
2023-05-02T21:16:19.485Z,4.80
2023-05-02T21:18:47.960Z,4.30
2023-05-02T21:21:15.974Z,4.90
2023-05-02T21:23:43.928Z,4.50
2023-05-02T21:26:11.724Z,3.60
2023-05-02T21:28:40.052Z,4.00
2023-05-02T21:31:08.041Z,3.80
2023-05-02T21:33:36.028Z,4.40
2023-05-02T21:36:04.262Z,4.20
2023-05-02T21:38:32.060Z,5.00
2023-05-02T21:41:04.742Z,4.30
2023-05-02T21:43:39.685Z,4.30
2023-05-02T21:46:07.621Z,4.60
2023-05-02T21:48:35.662Z,4.20
2023-05-02T21:51:08.497Z,4.30
2023-05-02T21:53:36.431Z,4.70
2023-05-02T21:56:06.708Z,5.00
2023-05-02T21:58:34.644Z,5.00
2023-05-02T22:01:03.222Z,4.90
2023-05-02T22:03:31.228Z,3.90
2023-05-02T22:06:05.019Z,4.60
2023-05-02T22:08:33.335Z,4.50
2023-05-02T22:11:09.569Z,4.40
2023-05-02T22:13:37.548Z,4.20
2023-05-02T22:16:06.160Z,4.60
2023-05-02T22:18:34.049Z,4.60
2023-05-02T22:21:02.198Z,4.30
2023-05-02T22:23:31.151Z,4.20
2023-05-02T22:25:59.124Z,4.30
2023-05-02T22:28:27.064Z,4.10
2023-05-02T22:30:54.977Z,4.40
2023-05-02T22:33:23.545Z,4.00
2023-05-02T22:35:51.436Z,4.50
2023-05-02T22:38:19.847Z,4.10
2023-05-02T22:40:47.787Z,4.80
2023-05-02T22:43:16.401Z,4.00
2023-05-02T22:45:44.156Z,4.20
2023-05-02T22:48:12.120Z,4.40
2023-05-02T22:50:40.177Z,4.40
2023-05-02T22:53:09.521Z,4.60
2023-05-02T22:55:38.875Z,4.00
2023-05-02T22:58:06.684Z,5.50
2023-05-02T23:00:34.562Z,4.20
2023-05-02T23:03:03.121Z,4.30
2023-05-02T23:05:31.034Z,4.30
2023-05-02T23:07:58.819Z,4.60
2023-05-02T23:10:26.862Z,4.70
2023-05-02T23:12:54.696Z,4.30
2023-05-02T23:15:22.499Z,4.20
2023-05-02T23:17:50.431Z,4.40
2023-05-02T23:20:20.403Z,4.10
2023-05-02T23:22:48.296Z,4.40
2023-05-02T23:25:16.066Z,4.40
2023-05-02T23:27:43.905Z,4.20
2023-05-02T23:30:12.019Z,4.20
2023-05-02T23:32:40.192Z,4.40
2023-05-02T23:35:08.722Z,4.80
2023-05-02T23:37:36.967Z,4.10
2023-05-02T23:40:09.275Z,5.50
2023-05-02T23:42:40.465Z,4.10
2023-05-02T23:45:09.562Z,4.30
2023-05-02T23:47:38.287Z,4.90
2023-05-02T23:50:07.342Z,4.40
2023-05-02T23:52:35.394Z,4.70
2023-05-02T23:55:03.369Z,5.20
2023-05-02T23:57:31.201Z,5.20
2023-05-02T23:59:58.963Z,5.00
